• Join FlightAware (Why Join?)
  • Login
  • US Flag 
01:19AM EST


 

Airport Tracker/Info


-or-


 

Live Flight TrackerFlight Track Log ✈ JBU56 ✈ 20-Nov-2013 ✈ KIAD - KBOS

Flight Track Log - Related Links

Times and Time Zones

All times are in EST time to prevent confusion due to time zone crossing. See the JBU56 flight status page for this flight to view local times or setup timezone preferences in your user account.

Time Position Orientation Groundspeed Altitude Reporting Facility
EST Latitude Longitude Course Direction KTS MPH feet Rate Location/Type
10:04AM 38.9833 -77.5167 90° East 196 226 3,000  Level Potomac TRACON
10:05AM 39.0500 -77.5333 349° North 249 287 5,700 3,000 Climbing Potomac TRACON
10:06AM 39.1264 -77.1528 78° East  Level Estimated
10:06AM 39.1167 -77.4833 30° Northeast 270 311 9,100  Level Potomac TRACON
10:07AM 39.1858 -77.0501 57° Northeast  Level Estimated
10:07AM 39.1333 -77.3833 78° East 322 371 10,000  Level Potomac TRACON
10:08AM 39.2452 -76.9473 74° East  Level Estimated
10:08AM 39.0861 -77.2067 109° East 330 380 12,400  Level Washington Center
10:09AM 39.3045 -76.8442 90° East  Level Estimated
10:09AM 39.0708 -77.0833 99° East 346 398 15,300  Level Washington Center
10:10AM 39.0850 -76.9447 82° East 356 410 17,900 2,100 Climbing Washington Center
10:11AM 39.0992 -76.7978 83° East 385 443 19,600 2,160 Climbing Washington Center
10:12AM 39.1108 -76.6483 84° East 404 465 22,300 1,680 Climbing Washington Center
10:13AM 39.1267 -76.4986 82° East 417 480 23,000 300 Climbing Washington Center
10:14AM 39.1381 -76.3489 84° East 422 486 23,000 720 Level Washington Center
10:15AM 39.1514 -76.1992 83° East 422 486 24,500 1,440 Climbing Washington Center
10:16AM 39.1731 -76.0414 80° East 434 499 26,000 1,440 Climbing Washington Center
10:17AM 39.2006 -75.8861 77° East 440 506 27,400 1,560 Climbing Washington Center
10:18AM 39.2842 -75.7631 49° Northeast 429 494 29,100 1,620 Climbing Washington Center
10:19AM 39.3739 -75.6481 45° Northeast 438 504 30,700 900 Climbing Washington Center
10:20AM 39.4636 -75.5297 45° Northeast 448 516 31,000 120 Climbing Washington Center
10:21AM 39.5592 -75.4086 44° Northeast 461 531 31,000  Level Washington Center
10:22AM 39.6547 -75.2842 45° Northeast 466 536 31,000  Level Washington Center
10:23AM 39.7439 -75.1544 48° Northeast 466 536 31,000  Level Washington Center
10:24AM 39.8106 -75.0569 48° Northeast 481 554 31,000  Level New York Center
10:25AM 39.8917 -74.9428 47° Northeast 475 547 31,000  Level New York Center
10:26AM 39.9861 -74.8075 48° Northeast 477 549 31,000  Level New York Center
10:27AM 40.0697 -74.6742 51° Northeast 483 556 31,000  Level New York Center
10:28AM 40.1575 -74.5406 49° Northeast 483 556 31,000  Level New York Center
10:29AM 40.2431 -74.4092 50° Northeast 483 556 31,000  Level New York Center
10:30AM 40.3283 -74.2750 50° Northeast 483 556 31,000  Level New York Center
10:32AM 40.5339 -73.9525 50° Northeast 484 557 31,000  Level Boston Center
10:33AM 40.6203 -73.8169 50° Northeast 485 558 31,000 -180 Level Boston Center
10:34AM 40.7056 -73.6817 50° Northeast 481 554 30,700 -1,380 Descending Boston Center
10:35AM 40.7933 -73.5442 50° Northeast 484 557 28,300 -1,860 Descending Boston Center
10:36AM 40.8906 -73.3928 50° Northeast 459 528 27,000 -1,140 Descending Boston Center
10:38AM 40.9742 -73.2706 48° Northeast 451 519 26,000 -1,080 Descending Boston Center
10:39AM 41.0556 -73.1481 49° Northeast 448 516 24,800 -1,200 Descending Boston Center
10:40AM 41.1169 -73.0131 59° Northeast 436 502 23,600 -900 Descending Boston Center
10:41AM 41.1731 -72.8722 62° Northeast 434 499 23,000 -300 Descending Boston Center
10:42AM 41.2275 -72.7331 62° Northeast 429 494 23,000  Level Boston Center
10:43AM 41.2819 -72.5922 63° Northeast 431 496 23,000  Level Boston Center
10:44AM 41.3367 -72.4519 63° Northeast 431 496 23,000 -300 Level Boston Center
10:45AM 41.3908 -72.3089 63° Northeast 433 498 22,400 -1,500 Descending Boston Center
10:46AM 41.4547 -72.1411 63° Northeast 427 491 19,900 -2,220 Descending Boston Center
10:47AM 41.5094 -72.0008 62° Northeast 415 478 17,900 -1,860 Descending Boston Center
10:48AM 41.5578 -71.8750 63° Northeast 385 443 16,200 -1,920 Descending Boston Center
10:49AM 41.6064 -71.7458 63° Northeast 366 421 14,100 -1,860 Descending Boston Center
10:50AM 41.6494 -71.6314 63° Northeast 350 403 12,400 -1,500 Descending Boston Center
10:51AM 41.6894 -71.5264 63° Northeast 322 371 11,100 -720 Descending Boston Center
10:52AM 41.7272 -71.4256 63° Northeast 282 325 11,000 -60 Descending Boston Center
10:53AM 41.7758 -71.3517 49° Northeast 269 310 11,000  Level Boston Center
10:54AM 41.8242 -71.2781 49° Northeast 264 304 11,000 -420 Level Boston Center
10:55AM 41.8756 -71.1981 49° Northeast 264 304 10,200 -1,020 Descending Boston Center
10:56AM 41.9417 -71.1803 11° North 248 285 9,000 -1,440 Descending Boston Center
10:57AM 42.0061 -71.1778 North 234 269 7,300 -1,440 Descending Boston Center
10:58AM 42.0689 -71.1489 19° North 220 253 6,100 -1,020 Descending Boston Center
10:59AM 42.1172 -71.1247 20° North 189 217 5,300 -840 Descending Boston Center
10:59AM 42.1500 -71.1167 10° North 178 205 4,800 -1,080 Descending KA90
11:00AM 42.1833 -71.0833 37° Northeast 177 204 3,700 -1,140 Descending KA90
11:01AM 42.2333 -71.0667 14° North 189 217 2,700 -1,080 Descending KA90
11:02AM 42.2833 -71.0500 14° North 167 192 1,600 -900 Descending KA90
11:03AM 42.3167 -71.0333 20° North 125 144 900 -480 Descending KA90
11:05AM 42.3667 -71.0061 22° Northeast 134 154 400 -360 Descending Boston Center
11:07AM 42.3630 -71.0064 180° South  Level Estimated